首页
METAR-TAF:

METAR-TAF

机场 :

盧布爾雅那約熱·普奇尼克機場

卢布尔雅那, 斯洛文尼亚

纬度: 46-13N, 经度: 014-29E, 海拔: 385米

当前天气观测

该预报发布于17分钟前的08:30 UTC
风速4节,风向东转东南,在北转东北南转南东之间变化
温度 19°C
湿度 56%
气压 1018 hPa
能见度10公里或以上
少量云层高于5000英尺
散云层高于7500英尺

METAR: LJLJ 010830Z 12004KT 030V160 9999 FEW050 SCT075 19/10 Q1018 NOSIG

时间: 10:47 (08:47 UTC)

预报

该预报发布于3小时和47分钟前的05:00 UTC
预报有效从01日的 06点(UTC)到 02日的 06点(UTC)
风速4节,风向西北
能见度10公里或以上
少量云层高于4000英尺
散云层高于6500英尺

TAF: LJLJ 010500Z 0106/0206 32004KT 9999 FEW040 SCT065

超过4000个机场的气象观测和天气预报(METAR&TAF报告)。

可查询的气象台以黄色和红色小点在地图上表示。

将鼠标移到小点上方,可查看气象台名称。

然后点击查看天气观测和预报。

如需切换地图:点击带黑十字的绿色按钮放大地图;点击带横线的绿色按钮缩小地图;或者点击绿色箭头查看邻近地区的地图。


METAR-TAF: